createdAt,value
2018-11-29T00:00:38.229Z,96338.00
2018-11-29T00:03:11.130Z,96340.00
2018-11-29T00:05:41.943Z,96327.00
2018-11-29T00:08:12.255Z,96330.00
2018-11-29T00:10:42.548Z,96339.00
2018-11-29T00:13:12.868Z,96332.00
2018-11-29T00:15:43.161Z,96326.00
2018-11-29T00:18:13.459Z,96326.00
2018-11-29T00:20:43.712Z,96328.00
2018-11-29T00:23:14.013Z,96327.00
2018-11-29T00:25:44.288Z,96323.00
2018-11-29T00:28:14.577Z,96322.00
2018-11-29T00:30:44.860Z,96320.00
2018-11-29T00:33:15.169Z,96315.00
2018-11-29T00:35:45.452Z,96312.00
2018-11-29T00:38:16.951Z,96311.00
2018-11-29T00:40:47.276Z,96315.00
2018-11-29T00:43:17.754Z,96303.00
2018-11-29T00:45:48.028Z,96303.00
2018-11-29T00:48:18.407Z,96305.00
2018-11-29T00:50:49.039Z,96302.00
2018-11-29T00:53:19.343Z,96313.00
2018-11-29T00:55:49.989Z,96310.00
2018-11-29T00:58:20.312Z,96320.00
2018-11-29T01:00:50.673Z,96315.00
2018-11-29T01:03:21.073Z,96325.00
2018-11-29T01:05:51.716Z,96318.00
2018-11-29T01:08:22.060Z,96324.00
2018-11-29T01:10:52.338Z,96334.00
2018-11-29T01:13:23.008Z,96317.00
2018-11-29T01:15:53.260Z,96317.00
2018-11-29T01:18:23.568Z,96322.00
2018-11-29T01:20:54.077Z,96319.00
2018-11-29T01:23:24.371Z,96315.00
2018-11-29T01:25:54.955Z,96319.00
2018-11-29T01:28:25.245Z,96316.00
2018-11-29T01:30:55.520Z,96325.00
2018-11-29T01:33:25.797Z,96322.00
2018-11-29T01:35:56.297Z,96327.00
2018-11-29T01:38:26.563Z,96326.00
2018-11-29T01:40:57.231Z,96318.00
2018-11-29T01:43:27.533Z,96320.00
2018-11-29T01:45:58.135Z,96319.00
2018-11-29T01:48:28.429Z,96333.00
2018-11-29T01:50:58.976Z,96317.00
2018-11-29T01:53:29.294Z,96315.00
2018-11-29T01:56:00.029Z,96312.00
2018-11-29T01:58:30.388Z,96310.00
2018-11-29T02:01:00.879Z,96310.00
2018-11-29T02:03:31.216Z,96299.00
2018-11-29T02:06:01.937Z,96297.00
2018-11-29T02:08:32.273Z,96294.00
2018-11-29T02:11:03.190Z,96292.00
2018-11-29T02:13:33.610Z,96285.00
2018-11-29T02:16:03.933Z,96290.00
2018-11-29T02:18:35.628Z,96279.00
2018-11-29T02:21:06.706Z,96290.00
2018-11-29T02:23:37.069Z,96279.00
2018-11-29T02:26:07.511Z,96276.00
2018-11-29T02:28:37.816Z,96269.00
2018-11-29T02:31:08.444Z,96263.00
2018-11-29T02:33:38.761Z,96252.00
2018-11-29T02:36:09.129Z,96260.00
2018-11-29T02:38:39.443Z,96248.00
2018-11-29T02:41:10.057Z,96251.00
2018-11-29T02:43:40.361Z,96252.00
2018-11-29T02:46:10.668Z,96241.00
2018-11-29T02:48:40.958Z,96234.00
2018-11-29T02:51:11.232Z,96231.00
2018-11-29T02:53:41.519Z,96218.00
2018-11-29T02:56:11.757Z,96219.00
2018-11-29T02:58:42.070Z,96221.00
2018-11-29T03:01:12.316Z,96221.00
2018-11-29T03:03:42.620Z,96215.00
2018-11-29T03:06:12.910Z,96227.00
2018-11-29T03:08:43.189Z,96230.00
2018-11-29T03:11:13.440Z,96234.00
2018-11-29T03:13:43.717Z,96231.00
2018-11-29T03:16:14.024Z,96233.00
2018-11-29T03:18:44.324Z,96239.00
2018-11-29T03:21:14.568Z,96246.00
2018-11-29T03:23:44.836Z,96247.00
2018-11-29T03:26:15.113Z,96245.00
2018-11-29T03:28:45.403Z,96237.00
2018-11-29T03:31:15.646Z,96238.00
2018-11-29T03:33:48.905Z,96236.00
2018-11-29T03:36:19.231Z,96234.00
2018-11-29T03:38:49.522Z,96223.00
2018-11-29T03:41:19.824Z,96232.00
2018-11-29T03:43:50.124Z,96231.00
2018-11-29T03:46:20.732Z,96246.00
2018-11-29T03:48:51.308Z,96223.00
2018-11-29T03:51:21.585Z,96229.00
2018-11-29T03:53:51.899Z,96216.00
2018-11-29T03:56:22.214Z,96217.00
2018-11-29T03:58:53.089Z,96213.00
2018-11-29T04:01:23.375Z,96208.00
2018-11-29T04:03:54.185Z,96206.00
2018-11-29T04:06:24.659Z,96195.00
2018-11-29T04:08:55.921Z,96201.00
2018-11-29T04:11:26.196Z,96207.00
2018-11-29T04:13:56.656Z,96205.00
2018-11-29T04:16:26.976Z,96200.00
2018-11-29T04:18:57.498Z,96203.00
2018-11-29T04:21:27.804Z,96203.00
2018-11-29T04:23:58.231Z,96209.00
2018-11-29T04:26:28.670Z,96194.00
2018-11-29T04:28:59.080Z,96201.00
2018-11-29T04:31:29.341Z,96187.00
2018-11-29T04:34:00.104Z,96204.00
2018-11-29T04:36:30.439Z,96205.00
2018-11-29T04:39:01.037Z,96192.00
2018-11-29T04:41:31.369Z,96197.00
2018-11-29T04:44:01.992Z,96183.00
2018-11-29T04:46:51.476Z,96196.00
2018-11-29T04:49:21.804Z,96197.00
2018-11-29T04:51:52.087Z,96184.00
2018-11-29T04:54:22.417Z,96186.00
2018-11-29T04:56:52.764Z,96184.00
2018-11-29T04:59:23.245Z,96212.00
2018-11-29T05:01:53.859Z,96185.00
2018-11-29T05:04:24.187Z,96186.00
2018-11-29T05:06:54.989Z,96175.00
2018-11-29T05:09:25.746Z,96172.00
2018-11-29T05:11:56.021Z,96162.00
2018-11-29T05:14:26.416Z,96166.00
2018-11-29T05:16:57.275Z,96165.00
2018-11-29T05:19:28.001Z,96176.00
2018-11-29T05:21:58.404Z,96181.00
2018-11-29T05:24:28.857Z,96176.00
2018-11-29T05:26:59.156Z,96168.00
2018-11-29T05:29:29.757Z,96166.00
2018-11-29T05:32:00.060Z,96169.00
2018-11-29T05:34:30.329Z,96175.00
2018-11-29T05:37:01.120Z,96160.00
2018-11-29T05:39:31.416Z,96112.00
2018-11-29T05:42:02.089Z,96153.00
2018-11-29T05:44:32.412Z,96161.00
2018-11-29T05:47:02.877Z,96160.00
2018-11-29T05:49:33.185Z,96147.00
2018-11-29T05:52:03.447Z,96169.00
2018-11-29T05:54:33.745Z,96167.00
2018-11-29T05:57:04.017Z,96168.00
2018-11-29T05:59:34.332Z,96162.00
2018-11-29T06:02:05.363Z,96164.00
2018-11-29T06:04:35.832Z,96176.00
2018-11-29T06:07:06.217Z,96170.00
2018-11-29T06:09:37.276Z,96182.00
2018-11-29T06:12:07.577Z,96183.00
2018-11-29T06:14:37.897Z,96180.00
2018-11-29T06:17:08.232Z,96184.00
2018-11-29T06:19:38.757Z,96181.00
2018-11-29T06:22:09.048Z,96180.00
2018-11-29T06:24:40.616Z,96182.00
2018-11-29T06:27:11.325Z,96173.00
2018-11-29T06:29:41.640Z,96164.00
2018-11-29T06:32:11.988Z,96169.00
2018-11-29T06:34:42.309Z,96173.00
2018-11-29T06:37:12.999Z,96169.00
2018-11-29T06:39:43.320Z,96163.00
2018-11-29T06:42:13.599Z,96169.00
2018-11-29T06:44:43.938Z,96168.00
2018-11-29T06:47:14.313Z,96163.00
2018-11-29T06:49:44.636Z,96161.00
2018-11-29T06:52:14.922Z,96166.00
2018-11-29T06:54:45.245Z,96174.00
2018-11-29T06:57:15.515Z,96172.00
2018-11-29T06:59:45.826Z,96166.00
2018-11-29T07:02:16.152Z,96168.00
2018-11-29T07:04:46.508Z,96163.00
2018-11-29T07:07:17.145Z,96160.00
2018-11-29T07:09:47.451Z,96157.00
2018-11-29T07:12:18.599Z,96166.00
2018-11-29T07:14:49.742Z,96166.00
2018-11-29T07:17:20.029Z,96165.00
2018-11-29T07:19:50.356Z,96159.00
2018-11-29T07:22:20.681Z,96158.00
2018-11-29T07:24:51.034Z,96146.00
2018-11-29T07:27:21.300Z,96150.00
2018-11-29T07:29:51.615Z,96142.00
2018-11-29T07:32:25.076Z,96148.00
2018-11-29T07:34:55.369Z,96147.00
2018-11-29T07:37:25.858Z,96136.00
2018-11-29T07:39:56.182Z,96141.00
2018-11-29T07:42:27.061Z,96135.00
2018-11-29T07:44:58.119Z,96131.00
2018-11-29T07:47:28.656Z,96137.00
2018-11-29T07:49:58.977Z,96136.00
2018-11-29T07:52:29.300Z,96129.00
2018-11-29T07:55:00.095Z,96125.00
2018-11-29T07:57:30.362Z,96127.00
2018-11-29T08:00:00.727Z,96130.00
2018-11-29T08:02:31.138Z,96126.00
2018-11-29T08:05:01.441Z,96118.00
2018-11-29T08:07:31.768Z,96120.00
2018-11-29T08:10:02.113Z,96116.00
2018-11-29T08:12:32.441Z,96112.00
2018-11-29T08:15:03.052Z,96110.00
2018-11-29T08:17:33.356Z,96128.00
2018-11-29T08:20:04.108Z,96133.00
2018-11-29T08:22:34.376Z,96129.00
2018-11-29T08:25:04.745Z,96037.00
2018-11-29T08:27:35.044Z,96131.00
2018-11-29T08:30:15.326Z,96131.00
2018-11-29T08:32:45.603Z,96129.00
2018-11-29T08:35:16.785Z,96146.00
2018-11-29T08:37:48.004Z,96105.00
2018-11-29T08:40:22.076Z,96110.00
2018-11-29T08:42:52.372Z,96110.00
2018-11-29T08:45:22.696Z,96118.00
2018-11-29T08:47:53.017Z,96109.00
2018-11-29T08:50:23.348Z,96105.00
2018-11-29T08:52:53.614Z,96104.00
2018-11-29T08:55:23.919Z,96103.00
2018-11-29T08:57:54.243Z,96109.00
2018-11-29T09:00:24.585Z,96110.00
2018-11-29T09:02:54.869Z,96109.00
2018-11-29T09:05:25.183Z,96106.00
2018-11-29T09:07:55.973Z,96105.00
2018-11-29T09:10:31.590Z,96123.00
2018-11-29T09:12:57.030Z,96109.00
2018-11-29T09:15:27.260Z,96107.00
2018-11-29T09:17:58.045Z,96107.00
2018-11-29T09:20:28.308Z,96111.00
2018-11-29T09:22:59.234Z,96113.00
2018-11-29T09:25:30.084Z,96114.00
2018-11-29T09:28:00.368Z,96123.00
2018-11-29T09:30:30.812Z,96128.00
2018-11-29T09:33:01.185Z,96115.00
2018-11-29T09:35:31.523Z,96103.00
2018-11-29T09:38:01.918Z,96100.00
2018-11-29T09:40:32.241Z,96096.00
2018-11-29T09:43:02.716Z,96099.00
2018-11-29T09:45:32.984Z,96085.00
2018-11-29T09:48:03.301Z,96088.00
2018-11-29T09:50:33.573Z,96092.00
2018-11-29T09:53:04.045Z,96111.00
2018-11-29T09:55:34.533Z,96078.00
2018-11-29T09:58:04.840Z,96081.00
2018-11-29T10:00:35.212Z,96078.00
2018-11-29T10:03:09.624Z,96067.00
2018-11-29T10:05:40.805Z,96070.00
2018-11-29T10:08:13.088Z,96064.00
2018-11-29T10:10:43.401Z,96058.00
2018-11-29T10:13:13.786Z,96055.00
2018-11-29T10:15:44.113Z,96053.00
2018-11-29T10:18:14.356Z,96059.00
2018-11-29T10:20:44.652Z,96040.00
2018-11-29T10:23:15.292Z,96044.00
2018-11-29T10:25:45.592Z,96044.00
2018-11-29T10:28:17.055Z,96040.00
2018-11-29T10:31:02.069Z,96044.00
2018-11-29T10:33:32.423Z,96042.00
2018-11-29T10:36:02.693Z,96036.00
2018-11-29T10:38:33.037Z,96036.00
2018-11-29T10:41:03.507Z,96023.00
2018-11-29T10:43:33.799Z,96026.00
2018-11-29T10:46:04.717Z,96017.00
2018-11-29T10:48:35.061Z,96008.00
2018-11-29T10:51:06.181Z,96010.00
2018-11-29T10:53:38.078Z,96009.00
2018-11-29T10:56:07.048Z,95990.00
2018-11-29T10:58:38.074Z,95985.00
2018-11-29T11:01:13.676Z,95979.00
2018-11-29T11:03:44.165Z,95972.00
2018-11-29T11:06:15.100Z,95965.00
2018-11-29T11:08:45.429Z,95959.00
2018-11-29T11:11:15.914Z,95962.00
2018-11-29T11:13:46.244Z,95964.00
2018-11-29T11:16:16.556Z,95953.00
2018-11-29T11:18:46.870Z,95962.00
2018-11-29T11:21:17.161Z,95957.00
2018-11-29T11:23:47.471Z,95942.00
2018-11-29T11:26:17.749Z,95946.00
2018-11-29T11:28:48.080Z,95948.00
2018-11-29T11:31:18.334Z,95937.00
2018-11-29T11:33:48.672Z,95940.00
2018-11-29T11:36:19.264Z,95938.00
2018-11-29T11:38:49.624Z,95923.00
2018-11-29T11:41:19.857Z,95920.00
2018-11-29T11:43:50.173Z,95914.00
2018-11-29T11:46:20.489Z,95922.00
2018-11-29T11:48:51.040Z,95916.00
2018-11-29T11:51:21.912Z,95926.00
2018-11-29T11:53:52.909Z,95927.00
2018-11-29T11:56:23.326Z,95932.00
2018-11-29T11:58:53.673Z,95927.00
2018-11-29T12:01:24.048Z,95940.00
2018-11-29T12:03:54.398Z,95919.00
2018-11-29T12:06:24.775Z,95921.00
2018-11-29T12:08:55.180Z,95912.00
2018-11-29T12:11:25.525Z,95924.00
2018-11-29T12:13:55.785Z,95911.00
2018-11-29T12:16:26.404Z,95907.00
2018-11-29T12:19:02.048Z,95910.00
2018-11-29T12:21:26.981Z,95919.00
2018-11-29T12:23:57.286Z,95912.00
2018-11-29T12:26:27.565Z,95899.00
2018-11-29T12:28:57.893Z,95901.00
2018-11-29T12:31:28.192Z,95897.00
2018-11-29T12:33:58.904Z,95887.00
2018-11-29T12:36:29.273Z,95871.00
2018-11-29T12:38:59.949Z,95872.00
2018-11-29T12:41:30.354Z,95863.00
2018-11-29T12:44:01.005Z,95863.00
2018-11-29T12:46:31.440Z,95872.00
2018-11-29T12:49:01.975Z,95868.00
2018-11-29T12:51:33.425Z,95850.00
2018-11-29T12:54:04.158Z,95863.00
2018-11-29T12:56:34.429Z,95865.00
2018-11-29T12:59:04.747Z,95862.00
2018-11-29T13:01:35.219Z,95865.00
2018-11-29T13:04:05.748Z,95881.00
2018-11-29T13:06:36.029Z,95887.00
2018-11-29T13:09:10.841Z,95880.00
2018-11-29T13:11:41.117Z,95873.00
2018-11-29T13:14:11.525Z,95869.00
2018-11-29T13:16:41.715Z,95858.00
2018-11-29T13:19:12.073Z,95853.00
2018-11-29T13:21:42.353Z,95859.00
2018-11-29T13:24:12.633Z,95856.00
2018-11-29T13:26:42.940Z,95858.00
2018-11-29T13:29:13.243Z,95845.00
2018-11-29T13:31:43.559Z,95846.00
2018-11-29T13:34:13.833Z,95835.00
2018-11-29T13:36:44.191Z,95843.00
2018-11-29T13:39:14.510Z,95840.00
2018-11-29T13:41:44.763Z,95839.00
2018-11-29T13:44:15.242Z,95839.00
2018-11-29T13:46:45.665Z,95845.00
2018-11-29T13:49:16.070Z,95836.00
2018-11-29T13:51:46.349Z,95840.00
2018-11-29T13:54:16.949Z,95835.00
2018-11-29T13:56:47.246Z,95834.00
2018-11-29T13:59:17.545Z,95834.00
2018-11-29T14:01:47.809Z,95831.00
2018-11-29T14:04:18.201Z,95827.00
2018-11-29T14:06:48.528Z,95824.00
2018-11-29T14:09:19.060Z,95817.00
2018-11-29T14:11:49.327Z,95820.00
2018-11-29T14:14:19.714Z,95833.00
2018-11-29T14:16:50.064Z,95839.00
2018-11-29T14:19:20.411Z,95822.00
2018-11-29T14:21:51.324Z,95824.00
2018-11-29T14:24:20.952Z,95831.00
2018-11-29T14:26:51.254Z,95826.00
2018-11-29T14:29:21.570Z,95830.00
2018-11-29T14:31:51.818Z,95824.00
2018-11-29T14:34:22.111Z,95835.00
2018-11-29T14:36:52.393Z,95831.00
2018-11-29T14:39:23.113Z,95822.00
2018-11-29T14:41:54.188Z,95831.00
2018-11-29T14:44:24.485Z,95853.00
2018-11-29T14:46:54.811Z,95851.00
2018-11-29T14:49:25.120Z,95848.00
2018-11-29T14:51:55.405Z,95844.00
2018-11-29T14:54:25.735Z,95844.00
2018-11-29T14:56:56.033Z,95845.00
2018-11-29T14:59:26.353Z,95836.00
2018-11-29T15:01:56.649Z,95843.00
2018-11-29T15:04:27.815Z,95840.00
2018-11-29T15:06:58.096Z,95841.00
2018-11-29T15:09:28.421Z,95835.00
2018-11-29T15:11:58.705Z,95853.00
2018-11-29T15:14:29.036Z,95854.00
2018-11-29T15:16:59.320Z,95854.00
2018-11-29T15:19:29.633Z,95842.00
2018-11-29T15:21:59.945Z,95849.00
2018-11-29T15:24:30.260Z,95830.00
2018-11-29T15:27:00.532Z,95835.00
2018-11-29T15:29:30.868Z,95832.00
2018-11-29T15:32:01.294Z,95833.00
2018-11-29T15:34:31.895Z,95833.00
2018-11-29T15:37:02.152Z,95838.00
2018-11-29T15:39:33.059Z,95846.00
2018-11-29T15:42:03.319Z,95842.00
2018-11-29T15:44:34.032Z,95884.00
2018-11-29T15:47:04.785Z,95847.00
2018-11-29T15:49:35.084Z,95835.00
2018-11-29T15:52:05.486Z,95831.00
2018-11-29T15:54:35.877Z,95846.00
2018-11-29T15:57:07.025Z,95812.00
2018-11-29T15:59:38.073Z,95822.00
2018-11-29T16:02:16.219Z,95823.00
2018-11-29T16:04:47.700Z,95818.00
2018-11-29T16:07:18.122Z,95813.00
2018-11-29T16:09:49.132Z,95805.00
2018-11-29T16:12:19.517Z,95839.00
2018-11-29T16:14:49.924Z,95803.00
2018-11-29T16:17:20.441Z,95800.00
2018-11-29T16:19:50.758Z,95799.00
2018-11-29T16:22:21.008Z,95793.00
2018-11-29T16:24:51.321Z,95796.00
2018-11-29T16:27:21.581Z,95785.00
2018-11-29T16:29:51.973Z,95783.00
2018-11-29T16:32:22.340Z,95782.00
2018-11-29T16:34:52.643Z,95775.00
2018-11-29T16:37:22.915Z,95774.00
2018-11-29T16:39:53.264Z,95777.00
2018-11-29T16:42:23.528Z,95768.00
2018-11-29T16:44:53.832Z,95773.00
2018-11-29T16:47:24.881Z,95763.00
2018-11-29T16:49:55.177Z,95762.00
2018-11-29T16:52:25.459Z,95753.00
2018-11-29T16:54:55.777Z,95760.00
2018-11-29T16:57:26.249Z,95756.00
2018-11-29T16:59:56.567Z,95750.00
2018-11-29T17:02:26.838Z,95755.00
2018-11-29T17:04:57.128Z,95753.00
2018-11-29T17:07:27.360Z,95749.00
2018-11-29T17:09:57.636Z,95736.00
2018-11-29T17:12:27.984Z,95746.00
2018-11-29T17:14:58.716Z,95754.00
2018-11-29T17:17:28.977Z,95735.00
2018-11-29T17:19:59.276Z,95752.00
2018-11-29T17:22:29.568Z,95750.00
2018-11-29T17:24:59.923Z,95754.00
2018-11-29T17:27:30.313Z,95769.00
2018-11-29T17:30:00.645Z,95767.00
2018-11-29T17:32:31.056Z,95767.00
2018-11-29T17:35:01.409Z,95768.00
2018-11-29T17:37:31.731Z,95752.00
2018-11-29T17:40:02.125Z,95754.00
2018-11-29T17:42:33.329Z,95743.00
2018-11-29T17:45:05.098Z,95742.00
2018-11-29T17:47:35.401Z,95736.00
2018-11-29T17:50:13.304Z,95725.00
2018-11-29T17:52:43.649Z,95716.00
2018-11-29T17:55:14.096Z,95737.00
2018-11-29T17:57:44.377Z,95741.00
2018-11-29T18:00:24.354Z,95739.00
2018-11-29T18:02:54.648Z,95724.00
2018-11-29T18:05:25.016Z,95725.00
2018-11-29T18:07:55.303Z,95732.00
2018-11-29T18:10:32.555Z,95737.00
2018-11-29T18:13:16.254Z,95742.00
2018-11-29T18:15:46.894Z,95730.00
2018-11-29T18:18:17.150Z,95740.00
2018-11-29T18:20:47.433Z,95720.00
2018-11-29T18:23:17.724Z,95743.00
2018-11-29T18:25:48.079Z,95727.00
2018-11-29T18:28:18.365Z,95742.00
2018-11-29T18:30:48.688Z,95749.00
2018-11-29T18:33:18.977Z,95735.00
2018-11-29T18:35:49.297Z,95735.00
2018-11-29T18:38:19.664Z,95736.00
2018-11-29T18:40:49.959Z,95740.00
2018-11-29T18:43:20.271Z,95739.00
2018-11-29T18:45:50.588Z,95734.00
2018-11-29T18:48:21.120Z,95731.00
2018-11-29T18:50:51.443Z,95731.00
2018-11-29T18:53:21.772Z,95733.00
2018-11-29T18:55:52.299Z,95726.00
2018-11-29T18:58:22.961Z,95726.00
2018-11-29T19:00:53.666Z,95730.00
2018-11-29T19:03:23.942Z,95709.00
2018-11-29T19:05:54.435Z,95711.00
2018-11-29T19:08:24.837Z,95709.00
2018-11-29T19:10:55.204Z,95710.00
2018-11-29T19:13:25.445Z,95718.00
2018-11-29T19:15:55.753Z,95708.00
2018-11-29T19:18:26.140Z,95718.00
2018-11-29T19:20:56.443Z,95704.00
2018-11-29T19:23:26.699Z,95718.00
2018-11-29T19:25:56.997Z,95723.00
2018-11-29T19:28:27.257Z,95723.00
2018-11-29T19:30:57.543Z,95730.00
2018-11-29T19:33:28.652Z,95708.00
2018-11-29T19:35:58.963Z,95715.00
2018-11-29T19:38:29.216Z,95714.00
2018-11-29T19:40:59.590Z,95716.00
2018-11-29T19:43:29.844Z,95726.00
2018-11-29T19:46:00.162Z,95721.00
2018-11-29T19:48:30.465Z,95721.00
2018-11-29T19:51:00.767Z,95719.00
2018-11-29T19:53:31.069Z,95722.00
2018-11-29T19:56:04.094Z,95723.00
2018-11-29T19:58:35.950Z,95736.00
2018-11-29T20:01:07.580Z,95730.00
2018-11-29T20:03:39.532Z,95727.00
2018-11-29T20:06:12.355Z,95735.00
2018-11-29T20:08:43.374Z,95733.00
2018-11-29T20:11:16.977Z,95725.00
2018-11-29T20:13:48.468Z,95729.00
2018-11-29T20:16:20.556Z,95723.00
2018-11-29T20:18:51.384Z,95723.00
2018-11-29T20:21:23.131Z,95706.00
2018-11-29T20:23:54.837Z,95705.00
2018-11-29T20:26:26.372Z,95701.00
2018-11-29T20:28:58.019Z,95701.00
2018-11-29T20:31:29.369Z,95693.00
2018-11-29T20:34:01.935Z,95695.00
2018-11-29T20:36:34.456Z,95706.00
2018-11-29T20:39:08.632Z,95699.00
2018-11-29T20:41:40.519Z,95690.00
2018-11-29T20:44:12.731Z,95700.00
2018-11-29T20:46:44.637Z,95699.00
2018-11-29T20:49:15.970Z,95691.00
2018-11-29T20:51:47.989Z,95690.00
2018-11-29T20:54:19.165Z,95691.00
2018-11-29T20:56:50.837Z,95707.00
2018-11-29T20:59:21.554Z,95700.00
2018-11-29T21:01:52.575Z,95701.00
2018-11-29T21:04:24.438Z,95699.00
2018-11-29T21:06:56.520Z,95699.00
2018-11-29T21:09:28.827Z,95702.00
2018-11-29T21:12:00.445Z,95694.00
2018-11-29T21:14:32.555Z,95700.00
2018-11-29T21:17:04.852Z,95694.00
2018-11-29T21:19:37.339Z,95688.00
2018-11-29T21:22:09.406Z,95698.00
2018-11-29T21:24:41.083Z,95693.00
2018-11-29T21:27:12.942Z,95696.00
2018-11-29T21:29:44.350Z,95691.00
2018-11-29T21:32:15.604Z,95689.00
2018-11-29T21:34:47.127Z,95680.00
2018-11-29T21:37:19.781Z,95686.00
2018-11-29T21:39:50.888Z,95682.00
2018-11-29T21:42:21.769Z,95685.00
2018-11-29T21:44:52.221Z,95695.00
2018-11-29T21:47:22.496Z,95686.00
2018-11-29T21:49:52.805Z,95691.00
2018-11-29T21:52:23.452Z,95695.00
2018-11-29T21:54:54.085Z,95679.00
2018-11-29T21:57:24.757Z,95683.00
2018-11-29T21:59:55.114Z,95676.00
2018-11-29T22:02:25.502Z,95687.00
2018-11-29T22:04:56.506Z,95683.00
2018-11-29T22:07:27.223Z,95681.00
2018-11-29T22:09:57.708Z,95683.00
2018-11-29T22:12:28.005Z,95695.00
2018-11-29T22:14:58.541Z,95688.00
2018-11-29T22:17:29.162Z,95702.00
2018-11-29T22:19:59.692Z,95680.00
2018-11-29T22:22:30.041Z,95687.00
2018-11-29T22:25:00.337Z,95683.00
2018-11-29T22:27:31.038Z,95678.00
2018-11-29T22:30:05.248Z,95686.00
2018-11-29T22:32:36.088Z,95682.00
2018-11-29T22:35:08.123Z,95681.00
2018-11-29T22:37:38.773Z,95690.00
2018-11-29T22:40:10.158Z,95683.00
2018-11-29T22:42:41.957Z,95676.00
2018-11-29T22:45:12.361Z,95691.00
2018-11-29T22:47:43.102Z,95683.00
2018-11-29T22:50:13.861Z,95692.00
2018-11-29T22:52:44.216Z,95692.00
2018-11-29T22:55:15.060Z,95684.00
2018-11-29T22:57:45.408Z,95694.00
2018-11-29T23:00:19.509Z,95690.00
2018-11-29T23:02:50.899Z,95681.00
2018-11-29T23:05:21.476Z,95695.00
2018-11-29T23:07:52.078Z,95679.00
2018-11-29T23:10:22.648Z,95682.00
2018-11-29T23:12:53.108Z,95667.00
2018-11-29T23:15:24.292Z,95675.00
2018-11-29T23:17:54.649Z,95670.00
2018-11-29T23:20:26.635Z,95679.00
2018-11-29T23:22:57.412Z,95673.00
2018-11-29T23:25:28.163Z,95673.00
2018-11-29T23:27:58.613Z,95672.00
2018-11-29T23:30:29.193Z,95652.00
2018-11-29T23:32:59.463Z,95665.00
2018-11-29T23:35:29.795Z,95651.00
2018-11-29T23:38:00.133Z,95669.00
2018-11-29T23:40:30.467Z,95665.00
2018-11-29T23:43:00.780Z,95656.00
2018-11-29T23:45:31.112Z,95652.00
2018-11-29T23:48:01.461Z,95649.00
2018-11-29T23:50:31.769Z,95643.00
2018-11-29T23:53:02.071Z,95647.00
2018-11-29T23:55:32.576Z,95647.00
2018-11-29T23:58:02.857Z,95650.00
